createdAt,value
2023-04-28T00:01:07.449Z,0.10
2023-04-28T00:03:09.219Z,0.10
2023-04-28T00:05:10.899Z,0.10
2023-04-28T00:07:12.694Z,0.10
2023-04-28T00:09:14.251Z,0.10
2023-04-28T00:11:15.752Z,0.00
2023-04-28T00:13:17.180Z,0.00
2023-04-28T00:15:18.600Z,0.00
2023-04-28T00:17:20.136Z,0.00
2023-04-28T00:19:22.343Z,0.00
2023-04-28T00:21:23.840Z,0.10
2023-04-28T00:23:25.247Z,0.00
2023-04-28T00:25:26.890Z,0.00
2023-04-28T00:27:28.437Z,0.00
2023-04-28T00:29:29.936Z,0.10
2023-04-28T00:31:31.529Z,0.00
2023-04-28T00:33:33.043Z,0.00
2023-04-28T00:35:34.536Z,0.10
2023-04-28T00:37:36.728Z,0.00
2023-04-28T00:39:38.156Z,0.05
2023-04-28T00:41:39.598Z,0.00
2023-04-28T00:43:50.519Z,0.00
2023-04-28T00:45:52.598Z,0.00
2023-04-28T00:47:54.671Z,0.00
2023-04-28T00:49:56.097Z,0.00
2023-04-28T00:51:58.045Z,0.00
2023-04-28T00:53:59.615Z,0.10
2023-04-28T00:56:01.132Z,0.10
2023-04-28T00:58:02.872Z,0.00
2023-04-28T01:00:04.730Z,0.10
2023-04-28T01:02:07.530Z,0.10
2023-04-28T01:04:09.248Z,0.00
2023-04-28T01:06:11.512Z,0.00
2023-04-28T01:08:13.016Z,0.00
2023-04-28T01:10:14.456Z,0.00
2023-04-28T01:12:15.911Z,0.00
2023-04-28T01:14:17.846Z,0.10
2023-04-28T01:16:19.871Z,0.10
2023-04-28T01:18:21.445Z,0.10
2023-04-28T01:20:22.996Z,0.00
2023-04-28T01:22:24.451Z,0.00
2023-04-28T01:24:26.144Z,0.00
2023-04-28T01:26:27.663Z,0.00
2023-04-28T01:28:29.078Z,0.00
2023-04-28T01:30:30.577Z,0.00
2023-04-28T01:32:32.026Z,0.00
2023-04-28T01:34:33.483Z,0.08
2023-04-28T01:36:37.300Z,0.10
2023-04-28T01:38:39.221Z,0.00
2023-04-28T01:40:40.960Z,0.00
2023-04-28T01:42:42.467Z,0.00
2023-04-28T01:44:43.909Z,0.05
2023-04-28T01:46:45.870Z,0.00
2023-04-28T01:48:47.636Z,0.00
2023-04-28T01:50:49.112Z,0.03
2023-04-28T01:52:50.695Z,0.10
2023-04-28T01:54:52.130Z,0.10
2023-04-28T01:56:53.941Z,0.00
2023-04-28T01:58:55.422Z,0.10
2023-04-28T02:00:56.916Z,0.10
2023-04-28T02:02:58.512Z,0.10
2023-04-28T02:05:00.234Z,0.00
2023-04-28T02:07:01.775Z,0.10
2023-04-28T02:09:03.228Z,0.00
2023-04-28T02:11:04.770Z,0.00
2023-04-28T02:13:06.169Z,0.00
2023-04-28T02:15:08.023Z,0.00
2023-04-28T02:17:09.457Z,0.00
2023-04-28T02:19:11.120Z,0.00
2023-04-28T02:21:12.858Z,0.00
2023-04-28T02:23:14.296Z,0.00
2023-04-28T02:25:15.864Z,0.00
2023-04-28T02:27:17.799Z,0.00
2023-04-28T02:29:19.773Z,0.00
2023-04-28T02:31:21.211Z,0.00
2023-04-28T02:33:22.768Z,0.00
2023-04-28T02:35:24.191Z,0.00
2023-04-28T02:37:26.264Z,0.00
2023-04-28T02:39:29.952Z,0.00
2023-04-28T02:41:31.729Z,0.00
2023-04-28T02:43:33.241Z,0.00
2023-04-28T02:45:34.647Z,0.00
2023-04-28T02:47:36.370Z,0.00
2023-04-28T02:49:37.910Z,0.00
2023-04-28T02:51:39.649Z,0.10
2023-04-28T02:53:41.036Z,0.00
2023-04-28T02:55:42.540Z,0.03
2023-04-28T02:57:43.900Z,0.00
2023-04-28T02:59:45.379Z,0.00
2023-04-28T03:01:47.149Z,0.10
2023-04-28T03:03:48.811Z,0.00
2023-04-28T03:05:50.592Z,0.00
2023-04-28T03:07:52.514Z,0.08
2023-04-28T03:09:53.961Z,0.00
2023-04-28T03:11:55.554Z,0.00
2023-04-28T03:13:57.027Z,0.00
2023-04-28T03:15:58.563Z,0.00
2023-04-28T03:17:59.996Z,0.00
2023-04-28T03:20:01.638Z,0.03
2023-04-28T03:22:03.117Z,0.00
2023-04-28T03:24:05.661Z,0.00
2023-04-28T03:26:07.466Z,0.00
2023-04-28T03:28:10.655Z,0.00
2023-04-28T03:30:12.500Z,0.00
2023-04-28T03:32:13.990Z,0.00
2023-04-28T03:34:16.016Z,0.00
2023-04-28T03:36:17.784Z,0.00
2023-04-28T03:38:19.192Z,0.00
2023-04-28T03:40:20.770Z,0.00
2023-04-28T03:42:22.280Z,0.00
2023-04-28T03:44:23.662Z,0.03
2023-04-28T03:46:25.096Z,0.10
2023-04-28T03:48:26.602Z,0.00
2023-04-28T03:50:28.111Z,0.00
2023-04-28T03:52:29.510Z,0.00
2023-04-28T03:54:31.207Z,0.00
2023-04-28T03:56:33.302Z,0.00
2023-04-28T03:58:34.814Z,0.00
2023-04-28T04:00:36.260Z,0.00
2023-04-28T04:02:37.794Z,0.00
2023-04-28T04:04:39.357Z,0.00
2023-04-28T04:06:41.045Z,0.00
2023-04-28T04:08:42.772Z,0.00
2023-04-28T04:10:44.246Z,0.00
2023-04-28T04:12:46.188Z,0.00
2023-04-28T04:14:47.671Z,0.00
2023-04-28T04:16:49.429Z,0.00
2023-04-28T04:18:50.985Z,0.00
2023-04-28T04:20:55.920Z,0.00
2023-04-28T04:22:57.439Z,0.00
2023-04-28T04:24:58.868Z,0.00
2023-04-28T04:27:00.513Z,0.00
2023-04-28T04:29:02.236Z,0.00
2023-04-28T04:31:04.053Z,0.00
2023-04-28T04:33:05.486Z,0.08
2023-04-28T04:35:07.049Z,0.00
2023-04-28T04:37:09.316Z,0.00
2023-04-28T04:39:10.734Z,0.00
2023-04-28T04:41:12.813Z,0.00
2023-04-28T04:43:14.262Z,0.00
2023-04-28T04:45:16.065Z,0.00
2023-04-28T04:47:17.496Z,0.00
2023-04-28T04:49:18.902Z,0.00
2023-04-28T04:51:20.369Z,0.00
2023-04-28T04:53:21.861Z,0.00
2023-04-28T04:55:23.356Z,0.00
2023-04-28T04:57:24.821Z,0.00
2023-04-28T04:59:26.216Z,0.00
2023-04-28T05:01:27.822Z,0.00
2023-04-28T05:03:29.465Z,0.00
2023-04-28T05:05:31.423Z,0.00
2023-04-28T05:07:33.067Z,0.00
2023-04-28T05:09:34.527Z,0.00
2023-04-28T05:11:35.979Z,0.00
2023-04-28T05:13:37.428Z,0.00
2023-04-28T05:15:38.896Z,0.00
2023-04-28T05:17:40.419Z,0.00
2023-04-28T05:19:41.847Z,0.00
2023-04-28T05:21:43.334Z,0.00
2023-04-28T05:23:45.576Z,0.00
2023-04-28T05:25:47.203Z,0.00
2023-04-28T05:27:48.924Z,0.00
2023-04-28T05:29:50.399Z,0.00
2023-04-28T05:31:51.875Z,0.00
2023-04-28T05:33:53.377Z,0.00
2023-04-28T05:35:54.890Z,0.00
2023-04-28T05:37:56.288Z,0.00
2023-04-28T05:39:57.955Z,0.00
2023-04-28T05:41:59.425Z,0.00
2023-04-28T05:44:01.004Z,0.00
2023-04-28T05:46:02.617Z,0.00
2023-04-28T05:48:05.114Z,0.00
2023-04-28T05:50:07.570Z,0.00
2023-04-28T05:52:08.975Z,0.00
2023-04-28T05:54:10.608Z,0.00
2023-04-28T05:56:12.018Z,0.00
2023-04-28T05:58:13.583Z,0.10
2023-04-28T06:00:15.203Z,0.00
2023-04-28T06:02:17.436Z,0.00
2023-04-28T06:04:19.580Z,0.00
2023-04-28T06:06:22.078Z,0.00
2023-04-28T06:08:23.727Z,0.00
2023-04-28T06:10:26.140Z,0.00
2023-04-28T06:12:30.744Z,0.00
2023-04-28T06:14:32.402Z,0.10
2023-04-28T06:16:33.876Z,0.00
2023-04-28T06:18:35.416Z,0.00
2023-04-28T06:20:36.875Z,0.00
2023-04-28T06:22:41.224Z,0.00
2023-04-28T06:24:43.986Z,0.00
2023-04-28T06:26:45.692Z,0.00
2023-04-28T06:28:47.192Z,0.00
2023-04-28T06:30:48.708Z,0.00
2023-04-28T06:32:53.256Z,0.00
2023-04-28T06:34:56.634Z,0.00
2023-04-28T06:36:59.367Z,0.00
2023-04-28T06:39:00.888Z,0.00
2023-04-28T06:41:02.692Z,0.00
2023-04-28T06:43:05.609Z,0.00
2023-04-28T06:45:07.321Z,0.00
2023-04-28T06:47:08.794Z,0.05
2023-04-28T06:49:10.298Z,0.10
2023-04-28T06:51:12.423Z,0.00
2023-04-28T06:53:13.864Z,0.00
2023-04-28T06:55:16.530Z,0.00
2023-04-28T06:57:17.998Z,0.00
2023-04-28T06:59:19.404Z,0.00
2023-04-28T07:01:21.181Z,0.00
2023-04-28T07:03:22.894Z,0.00
2023-04-28T07:05:24.675Z,0.00
2023-04-28T07:07:26.456Z,0.00
2023-04-28T07:09:29.056Z,0.00
2023-04-28T07:11:33.557Z,0.00
2023-04-28T07:13:35.019Z,0.00
2023-04-28T07:15:36.411Z,0.10
2023-04-28T07:17:38.354Z,0.00
2023-04-28T07:19:39.918Z,0.10
2023-04-28T07:21:41.338Z,0.10
2023-04-28T07:23:43.310Z,0.00
2023-04-28T07:25:44.795Z,0.03
2023-04-28T07:27:50.117Z,0.00
2023-04-28T07:29:51.664Z,0.00
2023-04-28T07:31:55.201Z,0.10
2023-04-28T07:33:56.847Z,0.00
2023-04-28T07:35:58.320Z,0.00
2023-04-28T07:37:59.892Z,0.10
2023-04-28T07:40:01.609Z,0.10
2023-04-28T07:42:03.453Z,0.00
2023-04-28T07:44:05.845Z,0.10
2023-04-28T07:46:08.353Z,0.00
2023-04-28T07:48:09.996Z,0.10
2023-04-28T07:50:12.053Z,0.10
2023-04-28T07:52:13.912Z,0.10
2023-04-28T07:54:15.768Z,0.00
2023-04-28T07:56:17.429Z,0.10
2023-04-28T07:58:19.067Z,0.05
2023-04-28T08:00:20.524Z,0.10
2023-04-28T08:02:22.061Z,0.00
2023-04-28T08:04:23.967Z,0.10
2023-04-28T08:06:25.856Z,0.10
2023-04-28T08:08:27.349Z,0.03
2023-04-28T08:10:29.092Z,0.03
2023-04-28T08:12:31.267Z,0.10
2023-04-28T08:14:33.000Z,0.10
2023-04-28T08:16:38.393Z,0.10
2023-04-28T08:18:40.010Z,0.10
2023-04-28T08:20:41.656Z,0.08
2023-04-28T08:22:43.127Z,0.10
2023-04-28T08:24:44.675Z,0.10
2023-04-28T08:26:46.230Z,0.00
2023-04-28T08:28:47.681Z,0.00
2023-04-28T08:30:49.182Z,0.00
2023-04-28T08:32:50.915Z,0.00
2023-04-28T08:34:52.628Z,0.10
2023-04-28T08:36:54.198Z,0.10
2023-04-28T08:39:03.613Z,0.10
2023-04-28T08:41:05.079Z,0.08
2023-04-28T08:43:07.080Z,0.10
2023-04-28T08:45:12.741Z,0.10
2023-04-28T08:47:14.516Z,0.10
2023-04-28T08:49:17.019Z,0.20
2023-04-28T08:51:30.447Z,0.15
2023-04-28T08:53:32.408Z,0.20
2023-04-28T08:55:35.843Z,0.17
2023-04-28T08:57:44.497Z,0.10
2023-04-28T08:59:46.293Z,0.20
2023-04-28T09:01:50.940Z,0.10
2023-04-28T09:03:54.251Z,0.15
2023-04-28T09:05:56.227Z,0.20
2023-04-28T09:07:57.649Z,0.00
2023-04-28T09:10:18.194Z,0.10
2023-04-28T09:14:23.981Z,0.00
2023-04-28T09:16:39.236Z,0.10
2023-04-28T09:18:41.111Z,0.05
2023-04-28T09:20:42.666Z,0.13
2023-04-28T09:22:44.235Z,0.00
2023-04-28T09:24:47.058Z,0.03
2023-04-28T09:26:50.617Z,0.00
2023-04-28T09:28:52.380Z,0.00
2023-04-28T09:30:54.583Z,0.10
2023-04-28T09:33:10.669Z,0.08
2023-04-28T09:35:12.942Z,0.10
2023-04-28T09:37:15.438Z,0.00
2023-04-28T09:39:28.391Z,0.10
2023-04-28T09:41:40.377Z,0.00
2023-04-28T09:43:41.862Z,0.10
2023-04-28T09:45:45.671Z,0.10
2023-04-28T09:47:48.175Z,0.10
2023-04-28T09:49:56.985Z,0.10
2023-04-28T09:52:12.136Z,0.10
2023-04-28T09:54:13.869Z,0.00
2023-04-28T09:56:19.652Z,0.10
2023-04-28T09:58:21.870Z,0.10
2023-04-28T10:00:23.919Z,0.05
2023-04-28T10:02:42.752Z,0.00
2023-04-28T10:04:45.451Z,0.13
2023-04-28T10:06:47.074Z,0.10
2023-04-28T10:08:51.118Z,0.10
2023-04-28T10:10:56.834Z,0.10
2023-04-28T10:12:59.710Z,0.10
2023-04-28T10:15:01.887Z,0.00
2023-04-28T10:17:05.412Z,0.05
2023-04-28T10:19:07.816Z,0.20
2023-04-28T10:21:10.374Z,0.00
2023-04-28T10:23:30.103Z,0.00
2023-04-28T10:25:32.436Z,0.10
2023-04-28T10:27:34.926Z,0.05
2023-04-28T10:29:36.730Z,0.03
2023-04-28T10:31:38.376Z,0.00
2023-04-28T10:33:41.201Z,0.10
2023-04-28T10:35:44.571Z,0.00
2023-04-28T10:38:10.590Z,0.03
2023-04-28T10:40:30.368Z,0.10
2023-04-28T10:42:50.495Z,0.10
2023-04-28T10:44:51.896Z,0.10
2023-04-28T10:47:03.042Z,0.00
2023-04-28T10:49:04.658Z,0.00
2023-04-28T10:51:06.962Z,0.03
2023-04-28T10:53:08.388Z,0.10
2023-04-28T10:55:30.724Z,0.03
2023-04-28T10:57:32.817Z,0.05
2023-04-28T10:59:34.425Z,0.20
2023-04-28T11:01:36.941Z,0.00
2023-04-28T11:03:38.713Z,0.08
2023-04-28T11:06:00.405Z,0.10
2023-04-28T11:08:21.002Z,0.00
2023-04-28T11:12:24.083Z,0.15
2023-04-28T11:14:25.830Z,0.20
2023-04-28T11:16:27.916Z,0.10
2023-04-28T11:18:29.492Z,0.15
2023-04-28T11:20:31.299Z,0.10
2023-04-28T11:22:33.016Z,0.00
2023-04-28T11:24:34.442Z,0.00
2023-04-28T11:26:37.835Z,0.10
2023-04-28T11:28:53.067Z,0.08
2023-04-28T11:31:11.233Z,0.10
2023-04-28T11:35:16.937Z,0.10
2023-04-28T11:37:21.000Z,0.15
2023-04-28T11:39:41.264Z,0.20
2023-04-28T11:41:45.929Z,0.20
2023-04-28T11:43:47.893Z,0.20
2023-04-28T11:45:49.427Z,0.10
2023-04-28T11:47:50.920Z,0.15
2023-04-28T11:49:52.545Z,0.20
2023-04-28T11:51:54.915Z,0.17
2023-04-28T11:53:56.296Z,0.20
2023-04-28T11:56:10.255Z,0.10
2023-04-28T11:58:18.374Z,0.17
2023-04-28T12:00:22.133Z,0.13
2023-04-28T12:02:30.413Z,0.20
2023-04-28T12:04:35.692Z,0.10
2023-04-28T12:06:37.632Z,0.17
2023-04-28T12:08:39.206Z,0.15
2023-04-28T12:10:40.589Z,0.13
2023-04-28T12:12:50.924Z,0.10
2023-04-28T12:14:57.547Z,0.10
2023-04-28T12:16:59.258Z,0.20
2023-04-28T12:19:00.867Z,0.20
2023-04-28T12:21:03.071Z,0.10
2023-04-28T12:23:05.592Z,0.03
2023-04-28T12:25:08.349Z,0.10
2023-04-28T12:27:17.472Z,0.10
2023-04-28T12:29:41.776Z,0.10
2023-04-28T12:31:52.021Z,0.00
2023-04-28T12:33:53.676Z,0.10
2023-04-28T12:35:57.885Z,0.00
2023-04-28T12:37:59.679Z,0.10
2023-04-28T12:40:02.494Z,0.10
2023-04-28T12:42:04.042Z,0.10
2023-04-28T12:44:07.637Z,0.10
2023-04-28T12:46:09.338Z,0.10
2023-04-28T12:48:11.071Z,0.00
2023-04-28T12:50:12.515Z,0.10
2023-04-28T12:52:13.960Z,0.10
2023-04-28T12:54:18.332Z,0.20
2023-04-28T12:56:19.813Z,0.20
2023-04-28T12:58:21.369Z,0.20
2023-04-28T13:00:24.825Z,0.10
2023-04-28T13:02:26.447Z,0.10
2023-04-28T13:04:28.375Z,0.10
2023-04-28T13:06:30.194Z,0.10
2023-04-28T13:08:34.074Z,0.10
2023-04-28T13:10:35.530Z,0.10
2023-04-28T13:12:36.955Z,0.13
2023-04-28T13:14:39.028Z,0.10
2023-04-28T13:16:40.912Z,0.05
2023-04-28T13:18:42.440Z,0.00
2023-04-28T13:20:44.063Z,0.10
2023-04-28T13:22:45.617Z,0.10
2023-04-28T13:24:47.637Z,0.10
2023-04-28T13:26:49.236Z,0.10
2023-04-28T13:28:51.964Z,0.10
2023-04-28T13:30:53.592Z,0.10
2023-04-28T13:32:56.841Z,0.20
2023-04-28T13:34:59.134Z,0.10
2023-04-28T13:37:00.930Z,0.10
2023-04-28T13:39:02.856Z,0.10
2023-04-28T13:41:04.757Z,0.20
2023-04-28T13:43:06.456Z,0.10
2023-04-28T13:45:08.035Z,0.10
2023-04-28T13:47:10.779Z,0.10
2023-04-28T13:49:12.658Z,0.10
2023-04-28T13:51:14.188Z,0.10
2023-04-28T13:53:15.646Z,0.10
2023-04-28T13:55:17.116Z,0.00
2023-04-28T13:57:18.542Z,0.00
2023-04-28T13:59:20.048Z,0.20
2023-04-28T14:01:21.533Z,0.10
2023-04-28T14:03:23.810Z,0.10
2023-04-28T14:05:26.077Z,0.10
2023-04-28T14:07:28.314Z,0.10
2023-04-28T14:09:29.744Z,0.10
2023-04-28T14:11:31.205Z,0.10
2023-04-28T14:13:33.343Z,0.10
2023-04-28T14:15:35.922Z,0.10
2023-04-28T14:17:37.525Z,0.10
2023-04-28T14:19:39.120Z,0.20
2023-04-28T14:21:41.107Z,0.20
2023-04-28T14:23:42.569Z,0.10
2023-04-28T14:25:44.131Z,0.20
2023-04-28T14:27:45.760Z,0.10
2023-04-28T14:29:48.313Z,0.10
2023-04-28T14:31:49.757Z,0.10
2023-04-28T14:33:51.342Z,0.10
2023-04-28T14:35:52.716Z,0.10
2023-04-28T14:37:56.653Z,0.10
2023-04-28T14:39:58.981Z,0.10
2023-04-28T14:42:00.711Z,0.20
2023-04-28T14:44:02.155Z,0.10
2023-04-28T14:46:04.706Z,0.00
2023-04-28T14:48:07.836Z,0.10
2023-04-28T14:50:09.868Z,0.17
2023-04-28T14:52:12.791Z,0.10
2023-04-28T14:54:14.225Z,0.00
2023-04-28T14:56:19.019Z,0.10
2023-04-28T14:58:21.439Z,0.00
2023-04-28T15:00:22.961Z,0.10
2023-04-28T15:02:29.278Z,0.05
2023-04-28T15:04:31.580Z,0.00
2023-04-28T15:06:34.090Z,0.00
2023-04-28T15:08:35.590Z,0.00
2023-04-28T15:10:40.400Z,0.00
2023-04-28T15:12:42.612Z,0.00
2023-04-28T15:14:44.121Z,0.00
2023-04-28T15:16:47.147Z,0.00
2023-04-28T15:18:49.038Z,0.00
2023-04-28T15:20:51.226Z,0.00
2023-04-28T15:22:52.640Z,0.00
2023-04-28T15:24:55.374Z,0.00
2023-04-28T15:26:56.843Z,0.00
2023-04-28T15:28:59.155Z,0.00
2023-04-28T15:31:00.533Z,0.03
2023-04-28T15:33:02.000Z,0.00
2023-04-28T15:35:04.068Z,0.00
2023-04-28T15:37:20.380Z,0.00
2023-04-28T15:39:21.901Z,0.00
2023-04-28T15:41:23.399Z,0.00
2023-04-28T15:43:25.279Z,0.03
2023-04-28T15:45:27.115Z,0.00
2023-04-28T15:47:33.036Z,0.00
2023-04-28T15:49:34.586Z,0.00
2023-04-28T15:51:36.089Z,0.00
2023-04-28T15:53:38.854Z,0.00
2023-04-28T15:55:40.563Z,0.00
2023-04-28T15:57:42.681Z,0.00
2023-04-28T15:59:44.168Z,0.00
2023-04-28T16:01:45.981Z,0.00
2023-04-28T16:03:48.311Z,0.00
2023-04-28T16:05:49.950Z,0.00
2023-04-28T16:07:52.800Z,0.00
2023-04-28T16:09:54.513Z,0.08
2023-04-28T16:11:59.296Z,0.00
2023-04-28T16:14:00.740Z,0.00
2023-04-28T16:16:02.302Z,0.00
2023-04-28T16:18:03.963Z,0.00
2023-04-28T16:20:06.876Z,0.10
2023-04-28T16:22:08.339Z,0.00
2023-04-28T16:24:10.144Z,0.00
2023-04-28T16:26:11.586Z,0.10
2023-04-28T16:28:13.047Z,0.00
2023-04-28T16:30:14.593Z,0.10
2023-04-28T16:32:16.350Z,0.00
2023-04-28T16:34:19.359Z,0.10
2023-04-28T16:36:21.440Z,0.10
2023-04-28T16:38:23.019Z,0.05
2023-04-28T16:40:24.576Z,0.05
2023-04-28T16:42:26.472Z,0.00
2023-04-28T16:44:28.716Z,0.00
2023-04-28T16:46:30.219Z,0.05
2023-04-28T16:48:31.800Z,0.10
2023-04-28T16:50:33.192Z,0.00
2023-04-28T16:52:34.938Z,0.00
2023-04-28T16:54:36.549Z,0.10
2023-04-28T16:56:39.558Z,0.05
2023-04-28T16:58:41.044Z,0.00
2023-04-28T17:00:42.608Z,0.00
2023-04-28T17:02:44.271Z,0.00
2023-04-28T17:04:46.018Z,0.10
2023-04-28T17:06:48.021Z,0.05
2023-04-28T17:08:49.408Z,0.03
2023-04-28T17:10:51.151Z,0.10
2023-04-28T17:12:52.589Z,0.10
2023-04-28T17:14:54.650Z,0.08
2023-04-28T17:16:56.497Z,0.00
2023-04-28T17:18:57.958Z,0.00
2023-04-28T17:20:59.394Z,0.10
2023-04-28T17:23:00.802Z,0.10
2023-04-28T17:25:02.280Z,0.00
2023-04-28T17:27:03.990Z,0.00
2023-04-28T17:29:05.746Z,0.10
2023-04-28T17:31:07.441Z,0.10
2023-04-28T17:33:10.180Z,0.00
2023-04-28T17:35:11.953Z,0.10
2023-04-28T17:37:13.941Z,0.10
2023-04-28T17:39:16.486Z,0.08
2023-04-28T17:41:19.704Z,0.10
2023-04-28T17:43:21.914Z,0.10
2023-04-28T17:45:23.492Z,0.10
2023-04-28T17:47:25.038Z,0.10
2023-04-28T17:49:26.750Z,0.10
2023-04-28T17:51:28.582Z,0.10
2023-04-28T17:53:30.061Z,0.00
2023-04-28T17:55:32.790Z,0.10
2023-04-28T17:57:36.132Z,0.00
2023-04-28T17:59:38.135Z,0.10
2023-04-28T18:01:39.538Z,0.00
2023-04-28T18:03:41.386Z,0.10
2023-04-28T18:05:42.986Z,0.00
2023-04-28T18:07:44.481Z,0.10
2023-04-28T18:09:46.029Z,0.00
2023-04-28T18:11:47.617Z,0.10
2023-04-28T18:13:49.139Z,0.10
2023-04-28T18:15:50.693Z,0.10
2023-04-28T18:17:52.537Z,0.10
2023-04-28T18:19:56.923Z,0.10
2023-04-28T18:21:58.846Z,0.10
2023-04-28T18:24:00.373Z,0.03
2023-04-28T18:26:01.815Z,0.10
2023-04-28T18:28:03.719Z,0.10
2023-04-28T18:30:08.453Z,0.10
2023-04-28T18:32:12.070Z,0.00
2023-04-28T18:34:15.180Z,0.10
2023-04-28T18:36:16.624Z,0.10
2023-04-28T18:38:18.326Z,0.00
2023-04-28T18:40:19.760Z,0.05
2023-04-28T18:42:21.575Z,0.03
2023-04-28T18:44:23.232Z,0.00
2023-04-28T18:46:25.546Z,0.10
2023-04-28T18:48:27.132Z,0.10
2023-04-28T18:50:29.094Z,0.10
2023-04-28T18:52:30.706Z,0.00
2023-04-28T18:54:32.819Z,0.10
2023-04-28T18:56:35.036Z,0.00
2023-04-28T18:58:41.400Z,0.00
2023-04-28T19:00:45.754Z,0.10
2023-04-28T19:02:47.377Z,0.08
2023-04-28T19:04:48.957Z,0.10
2023-04-28T19:06:50.836Z,0.10
2023-04-28T19:08:52.306Z,0.10
2023-04-28T19:10:53.902Z,0.10
2023-04-28T19:12:56.026Z,0.10
2023-04-28T19:14:57.599Z,0.10
2023-04-28T19:16:59.126Z,0.10
2023-04-28T19:19:00.744Z,0.10
2023-04-28T19:21:02.872Z,0.10
2023-04-28T19:23:04.381Z,0.10
2023-04-28T19:25:06.786Z,0.10
2023-04-28T19:27:08.720Z,0.10
2023-04-28T19:29:11.805Z,0.10
2023-04-28T19:31:13.387Z,0.13
2023-04-28T19:33:15.188Z,0.10
2023-04-28T19:35:16.749Z,0.20
2023-04-28T19:37:18.295Z,0.20
2023-04-28T19:39:19.720Z,0.10
2023-04-28T19:41:21.171Z,0.15
2023-04-28T19:43:22.928Z,0.10
2023-04-28T19:45:24.562Z,0.10
2023-04-28T19:47:26.854Z,0.15
2023-04-28T19:49:28.290Z,0.20
2023-04-28T19:51:29.994Z,0.20
2023-04-28T19:53:31.511Z,0.20
2023-04-28T19:55:32.906Z,0.10
2023-04-28T19:57:34.440Z,0.20
2023-04-28T19:59:35.813Z,0.15
2023-04-28T20:01:41.754Z,0.20
2023-04-28T20:03:43.432Z,0.20
2023-04-28T20:05:45.070Z,0.20
2023-04-28T20:07:47.304Z,0.20
2023-04-28T20:09:48.893Z,0.20
2023-04-28T20:11:50.669Z,0.22
2023-04-28T20:13:52.698Z,0.30
2023-04-28T20:15:54.284Z,0.50
2023-04-28T20:17:55.848Z,0.45
2023-04-28T20:19:57.303Z,0.50
2023-04-28T20:21:58.763Z,0.40
2023-04-28T20:24:00.252Z,0.40
2023-04-28T20:26:02.042Z,0.40
2023-04-28T20:28:03.574Z,0.50
2023-04-28T20:30:05.593Z,0.45
2023-04-28T20:32:07.422Z,0.40
2023-04-28T20:34:08.943Z,0.40
2023-04-28T20:36:12.367Z,0.35
2023-04-28T20:38:14.323Z,0.35
2023-04-28T20:40:15.741Z,0.30
2023-04-28T20:42:17.842Z,0.40
2023-04-28T20:44:19.332Z,0.30
2023-04-28T20:46:21.328Z,0.30
2023-04-28T20:48:23.000Z,0.22
2023-04-28T20:50:24.666Z,0.30
2023-04-28T20:52:26.284Z,0.30
2023-04-28T20:54:27.722Z,0.30
2023-04-28T20:56:29.102Z,0.20
2023-04-28T20:58:31.495Z,0.22
2023-04-28T21:00:33.806Z,0.30
2023-04-28T21:02:36.169Z,0.30
2023-04-28T21:04:37.704Z,0.20
2023-04-28T21:06:39.195Z,0.30
2023-04-28T21:08:41.810Z,0.30
2023-04-28T21:10:43.196Z,0.28
2023-04-28T21:12:45.505Z,0.20
2023-04-28T21:14:48.040Z,0.10
2023-04-28T21:16:50.055Z,0.30
2023-04-28T21:18:52.025Z,0.15
2023-04-28T21:20:54.583Z,0.20
2023-04-28T21:22:56.219Z,0.28
2023-04-28T21:24:58.070Z,0.20
2023-04-28T21:26:59.543Z,0.20
2023-04-28T21:29:01.528Z,0.20
2023-04-28T21:31:04.058Z,0.15
2023-04-28T21:33:05.502Z,0.20
2023-04-28T21:35:07.255Z,0.10
2023-04-28T21:37:08.616Z,0.20
2023-04-28T21:39:10.396Z,0.10
2023-04-28T21:41:14.623Z,0.15
2023-04-28T21:43:16.503Z,0.10
2023-04-28T21:45:17.971Z,0.20
2023-04-28T21:47:19.566Z,0.20
2023-04-28T21:49:21.360Z,0.10
2023-04-28T21:51:22.932Z,0.10
2023-04-28T21:53:24.312Z,0.15
2023-04-28T21:55:25.702Z,0.20
2023-04-28T21:57:27.496Z,0.10
2023-04-28T21:59:28.912Z,0.10
2023-04-28T22:01:30.713Z,0.10
2023-04-28T22:03:35.007Z,0.10
2023-04-28T22:05:37.087Z,0.10
2023-04-28T22:07:38.695Z,0.10
2023-04-28T22:09:40.325Z,0.10
2023-04-28T22:11:42.611Z,0.17
2023-04-28T22:13:44.171Z,0.08
2023-04-28T22:15:46.540Z,0.10
2023-04-28T22:17:47.988Z,0.10
2023-04-28T22:19:49.696Z,0.10
2023-04-28T22:21:51.581Z,0.10
2023-04-28T22:23:53.082Z,0.03
2023-04-28T22:25:57.220Z,0.03
2023-04-28T22:27:58.651Z,0.00
2023-04-28T22:30:00.190Z,0.10
2023-04-28T22:32:02.856Z,0.10
2023-04-28T22:34:05.834Z,0.03
2023-04-28T22:36:07.330Z,0.10
2023-04-28T22:38:08.885Z,0.10
2023-04-28T22:40:11.152Z,0.10
2023-04-28T22:42:15.886Z,0.00
2023-04-28T22:44:17.346Z,0.10
2023-04-28T22:46:18.814Z,0.10
2023-04-28T22:48:20.266Z,0.10
2023-04-28T22:50:21.772Z,0.05
2023-04-28T22:52:23.868Z,0.10
2023-04-28T22:54:25.533Z,0.10
2023-04-28T22:56:26.963Z,0.00
2023-04-28T22:58:28.445Z,0.08
2023-04-28T23:00:29.977Z,0.10
2023-04-28T23:02:31.959Z,0.10
2023-04-28T23:04:33.764Z,0.05
2023-04-28T23:06:35.537Z,0.10
2023-04-28T23:08:36.929Z,0.10
2023-04-28T23:10:38.441Z,0.10
2023-04-28T23:12:39.892Z,0.00
2023-04-28T23:14:41.435Z,0.00
2023-04-28T23:16:43.035Z,0.00
2023-04-28T23:18:44.622Z,0.10
2023-04-28T23:20:50.020Z,0.10
2023-04-28T23:22:52.503Z,0.10
2023-04-28T23:24:53.909Z,0.00
2023-04-28T23:26:55.618Z,0.10
2023-04-28T23:28:57.061Z,0.00
2023-04-28T23:30:58.659Z,0.10
2023-04-28T23:33:00.073Z,0.00
2023-04-28T23:35:02.662Z,0.10
2023-04-28T23:37:04.152Z,0.10
2023-04-28T23:39:05.788Z,0.10
2023-04-28T23:41:08.512Z,0.00
2023-04-28T23:43:09.962Z,0.00
2023-04-28T23:45:11.632Z,0.00
2023-04-28T23:47:14.497Z,0.10
2023-04-28T23:49:16.498Z,0.10
2023-04-28T23:51:17.891Z,0.10
2023-04-28T23:53:19.352Z,0.10
2023-04-28T23:55:20.839Z,0.00
2023-04-28T23:57:22.683Z,0.00
2023-04-28T23:59:24.619Z,0.00
